createdAt,value
2022-12-24T00:00:24.806Z,53.40
2022-12-24T00:01:59.376Z,54.45
2022-12-24T00:03:33.152Z,54.28
2022-12-24T00:05:07.657Z,51.35
2022-12-24T00:06:40.810Z,47.03
2022-12-24T00:08:13.008Z,47.90
2022-12-24T00:09:46.172Z,47.38
2022-12-24T00:11:19.958Z,50.25
2022-12-24T00:12:52.098Z,47.53
2022-12-24T00:14:25.247Z,54.08
2022-12-24T00:15:58.462Z,49.42
2022-12-24T00:17:33.003Z,32.03
2022-12-24T00:19:06.229Z,25.98
2022-12-24T00:20:39.348Z,25.77
2022-12-24T00:22:12.520Z,23.38
2022-12-24T00:23:44.878Z,23.55
2022-12-24T00:25:18.436Z,22.83
2022-12-24T00:26:51.627Z,23.33
2022-12-24T00:28:24.080Z,16.13
2022-12-24T00:29:57.251Z,14.30
2022-12-24T00:31:30.599Z,15.73
2022-12-24T00:33:04.372Z,14.07
2022-12-24T00:34:37.611Z,14.95
2022-12-24T00:36:10.059Z,20.20
2022-12-24T00:37:43.270Z,15.52
2022-12-24T00:39:16.440Z,14.57
2022-12-24T00:40:48.589Z,16.98
2022-12-24T00:42:21.783Z,15.48
2022-12-24T00:43:56.288Z,13.80
2022-12-24T00:45:29.449Z,12.18
2022-12-24T00:47:05.518Z,15.50
2022-12-24T00:48:44.582Z,25.98
2022-12-24T00:50:17.907Z,14.95
2022-12-24T00:51:51.165Z,13.70
2022-12-24T00:53:24.330Z,21.08
2022-12-24T00:54:57.576Z,14.93
2022-12-24T00:56:29.932Z,12.15
2022-12-24T00:58:03.040Z,17.38
2022-12-24T00:59:36.186Z,14.50
2022-12-24T01:01:08.517Z,15.10
2022-12-24T01:02:41.899Z,14.38
2022-12-24T01:04:34.448Z,13.57
2022-12-24T01:06:09.752Z,12.63
2022-12-24T01:07:44.316Z,13.82
2022-12-24T01:09:17.660Z,15.18
2022-12-24T01:10:50.779Z,15.43
2022-12-24T01:12:23.441Z,14.77
2022-12-24T01:13:57.371Z,23.67
2022-12-24T01:15:30.807Z,16.98
2022-12-24T01:17:03.083Z,17.23
2022-12-24T01:18:36.249Z,17.15
2022-12-24T01:20:16.165Z,19.17
2022-12-24T01:21:49.316Z,22.58
2022-12-24T01:23:22.424Z,23.20
2022-12-24T01:24:55.700Z,22.77
2022-12-24T01:26:28.856Z,22.80
2022-12-24T01:28:01.956Z,22.88
2022-12-24T01:29:34.273Z,25.13
2022-12-24T01:31:12.237Z,25.85
2022-12-24T01:32:45.389Z,28.98
2022-12-24T01:34:17.586Z,27.25
2022-12-24T01:35:52.125Z,26.63
2022-12-24T01:37:25.355Z,24.60
2022-12-24T01:38:57.531Z,24.80
2022-12-24T01:40:48.264Z,28.17
2022-12-24T01:42:41.321Z,27.25
2022-12-24T01:44:35.255Z,26.23
2022-12-24T01:46:15.043Z,28.27
2022-12-24T01:47:48.804Z,29.55
2022-12-24T01:49:22.200Z,21.02
2022-12-24T01:51:01.638Z,21.58
2022-12-24T01:52:37.074Z,21.80
2022-12-24T01:54:13.367Z,25.48
2022-12-24T01:55:48.221Z,23.90
2022-12-24T01:57:27.287Z,26.13
2022-12-24T01:59:05.806Z,26.08
2022-12-24T02:00:38.174Z,26.67
2022-12-24T02:02:12.076Z,30.75
2022-12-24T02:03:44.733Z,28.55
2022-12-24T02:05:24.665Z,31.27
2022-12-24T02:06:59.282Z,31.63
2022-12-24T02:08:40.076Z,30.08
2022-12-24T02:10:14.709Z,32.10
2022-12-24T02:11:48.307Z,26.23
2022-12-24T02:13:22.785Z,24.15
2022-12-24T02:14:55.258Z,23.10
2022-12-24T02:16:39.708Z,26.75
2022-12-24T02:18:21.548Z,32.22
2022-12-24T02:20:32.016Z,33.65
2022-12-24T02:22:11.588Z,34.70
2022-12-24T02:24:02.858Z,34.08
2022-12-24T02:26:08.278Z,38.38
2022-12-24T02:27:56.992Z,40.33
2022-12-24T02:30:00.091Z,43.45
2022-12-24T02:31:42.824Z,45.85
2022-12-24T02:33:31.208Z,49.10
2022-12-24T02:35:10.779Z,55.53
2022-12-24T02:36:48.383Z,58.10
2022-12-24T02:38:28.364Z,57.78
2022-12-24T02:40:13.772Z,55.58
2022-12-24T02:42:08.885Z,53.45
2022-12-24T02:43:46.127Z,51.55
2022-12-24T02:45:23.160Z,51.65
2022-12-24T02:47:00.485Z,54.88
2022-12-24T02:48:34.290Z,58.72
2022-12-24T02:50:09.713Z,57.42
2022-12-24T02:51:43.133Z,58.55
2022-12-24T02:53:16.211Z,60.83
2022-12-24T02:54:49.429Z,61.50
2022-12-24T02:56:37.965Z,58.65
2022-12-24T02:58:26.220Z,67.57
2022-12-24T03:00:04.010Z,69.22
2022-12-24T03:01:50.199Z,54.08
2022-12-24T03:03:43.293Z,63.03
2022-12-24T03:05:23.965Z,66.43
2022-12-24T03:07:02.268Z,58.13
2022-12-24T03:08:45.238Z,63.65
2022-12-24T03:10:23.277Z,61.17
2022-12-24T03:12:02.815Z,63.33
2022-12-24T03:13:36.197Z,64.82
2022-12-24T03:15:10.288Z,62.95
2022-12-24T03:16:45.317Z,68.82
2022-12-24T03:18:20.789Z,68.32
2022-12-24T03:19:56.719Z,62.05
2022-12-24T03:21:34.621Z,60.28
2022-12-24T03:23:08.111Z,41.20
2022-12-24T03:24:40.311Z,40.63
2022-12-24T03:26:15.790Z,39.80
2022-12-24T03:27:48.368Z,38.47
2022-12-24T03:29:21.887Z,40.90
2022-12-24T03:30:55.755Z,42.38
2022-12-24T03:32:29.839Z,40.03
2022-12-24T03:34:02.937Z,31.33
2022-12-24T03:35:36.450Z,43.15
2022-12-24T03:37:09.668Z,39.50
2022-12-24T03:38:41.818Z,35.85
2022-12-24T03:40:15.338Z,35.38
2022-12-24T03:41:47.761Z,40.95
2022-12-24T03:43:20.948Z,47.45
2022-12-24T03:44:54.082Z,53.08
2022-12-24T03:46:27.299Z,44.15
2022-12-24T03:48:00.523Z,40.45
2022-12-24T03:49:33.661Z,37.42
2022-12-24T03:51:18.937Z,33.08
2022-12-24T03:52:52.141Z,35.67
2022-12-24T03:54:25.307Z,35.38
2022-12-24T03:55:58.454Z,36.03
2022-12-24T03:57:30.619Z,31.15
2022-12-24T03:59:03.923Z,34.88
2022-12-24T04:00:36.065Z,29.63
2022-12-24T04:02:09.548Z,27.48
2022-12-24T04:03:41.885Z,26.55
2022-12-24T04:05:16.213Z,28.80
2022-12-24T04:06:50.808Z,36.25
2022-12-24T04:08:23.901Z,31.33
2022-12-24T04:09:57.016Z,37.75
2022-12-24T04:11:29.173Z,38.47
2022-12-24T04:13:02.300Z,51.40
2022-12-24T04:14:35.567Z,56.03
2022-12-24T04:16:10.983Z,56.38
2022-12-24T04:17:44.183Z,45.25
2022-12-24T04:19:17.336Z,37.08
2022-12-24T04:20:50.455Z,43.03
2022-12-24T04:22:24.945Z,34.83
2022-12-24T04:23:58.079Z,31.85
2022-12-24T04:25:31.160Z,30.63
2022-12-24T04:27:04.450Z,27.67
2022-12-24T04:28:38.200Z,31.63
2022-12-24T04:30:12.036Z,34.78
2022-12-24T04:31:45.315Z,24.77
2022-12-24T04:33:17.446Z,22.40
2022-12-24T04:34:50.590Z,22.83
2022-12-24T04:36:23.820Z,21.15
2022-12-24T04:37:58.424Z,18.73
2022-12-24T04:39:31.604Z,22.42
2022-12-24T04:41:05.609Z,20.58
2022-12-24T04:42:38.791Z,19.05
2022-12-24T04:44:10.936Z,49.83
2022-12-24T04:45:44.188Z,30.30
2022-12-24T04:47:17.476Z,24.50
2022-12-24T04:48:55.013Z,18.75
2022-12-24T04:50:27.311Z,16.65
2022-12-24T04:52:00.416Z,19.67
2022-12-24T04:53:34.845Z,16.90
2022-12-24T04:55:09.257Z,18.77
2022-12-24T04:56:42.679Z,17.85
2022-12-24T04:58:15.870Z,18.38
2022-12-24T04:59:49.611Z,21.63
2022-12-24T05:01:24.284Z,23.00
2022-12-24T05:02:57.519Z,26.77
2022-12-24T05:04:32.004Z,31.38
2022-12-24T05:06:05.432Z,35.60
2022-12-24T05:07:38.831Z,35.63
2022-12-24T05:09:13.211Z,35.40
2022-12-24T05:10:46.420Z,36.50
2022-12-24T05:12:19.678Z,39.70
2022-12-24T05:13:51.908Z,43.70
2022-12-24T05:15:25.557Z,39.47
2022-12-24T05:16:58.825Z,46.63
2022-12-24T05:18:31.331Z,42.10
2022-12-24T05:20:08.775Z,42.85
2022-12-24T05:21:41.844Z,35.92
2022-12-24T05:23:35.280Z,49.30
2022-12-24T05:25:28.717Z,48.45
2022-12-24T05:27:01.936Z,58.85
2022-12-24T05:28:35.190Z,73.25
2022-12-24T05:30:09.694Z,61.58
2022-12-24T05:31:45.373Z,57.15
2022-12-24T05:33:19.065Z,54.03
2022-12-24T05:34:52.361Z,32.75
2022-12-24T05:36:25.615Z,30.98
2022-12-24T05:37:58.589Z,35.92
2022-12-24T05:39:31.842Z,29.90
2022-12-24T05:41:06.296Z,40.50
2022-12-24T05:42:39.675Z,33.33
2022-12-24T05:44:13.034Z,28.33
2022-12-24T05:45:46.766Z,34.13
2022-12-24T05:47:19.999Z,34.40
2022-12-24T05:48:54.457Z,33.92
2022-12-24T05:50:28.625Z,27.90
2022-12-24T05:52:11.438Z,30.33
2022-12-24T05:53:43.874Z,30.67
2022-12-24T05:55:17.032Z,26.77
2022-12-24T05:56:51.591Z,28.00
2022-12-24T05:58:23.800Z,28.83
2022-12-24T05:59:57.002Z,32.63
2022-12-24T06:01:30.649Z,37.05
2022-12-24T06:03:04.416Z,35.53
2022-12-24T06:04:37.645Z,34.92
2022-12-24T06:06:13.941Z,40.83
2022-12-24T06:07:46.165Z,41.03
2022-12-24T06:09:19.403Z,40.85
2022-12-24T06:10:56.094Z,39.28
2022-12-24T06:12:31.332Z,62.55
2022-12-24T06:14:04.901Z,52.95
2022-12-24T06:15:37.987Z,38.25
2022-12-24T06:17:11.213Z,61.58
2022-12-24T06:18:44.519Z,40.90
2022-12-24T06:20:17.895Z,45.63
2022-12-24T06:21:51.720Z,52.10
2022-12-24T06:23:24.599Z,52.10
2022-12-24T06:24:58.122Z,46.85
2022-12-24T06:26:31.643Z,34.75
2022-12-24T06:28:05.720Z,37.75
2022-12-24T06:29:39.450Z,30.88
2022-12-24T06:31:14.972Z,27.00
2022-12-24T06:32:48.483Z,32.58
2022-12-24T06:34:23.915Z,28.73
2022-12-24T06:35:57.067Z,32.72
2022-12-24T06:37:30.800Z,27.52
2022-12-24T06:39:03.000Z,43.22
2022-12-24T06:40:36.658Z,44.53
2022-12-24T06:42:09.759Z,50.15
2022-12-24T06:43:47.220Z,42.53
2022-12-24T06:45:20.592Z,41.45
2022-12-24T06:46:53.993Z,43.33
2022-12-24T06:48:27.653Z,35.47
2022-12-24T06:50:00.858Z,29.00
2022-12-24T06:51:34.309Z,32.00
2022-12-24T06:53:07.738Z,28.15
2022-12-24T06:54:41.370Z,31.25
2022-12-24T06:56:14.764Z,28.83
2022-12-24T06:57:48.356Z,34.33
2022-12-24T06:59:23.046Z,33.33
2022-12-24T07:00:56.509Z,54.15
2022-12-24T07:02:29.646Z,59.08
2022-12-24T07:04:03.363Z,60.25
2022-12-24T07:05:38.663Z,64.70
2022-12-24T07:07:13.112Z,67.78
2022-12-24T07:08:46.298Z,76.85
2022-12-24T07:10:19.286Z,72.90
2022-12-24T07:11:52.655Z,62.50
2022-12-24T07:13:25.819Z,62.35
2022-12-24T07:15:00.468Z,56.63
2022-12-24T07:16:33.803Z,60.60
2022-12-24T07:18:07.785Z,59.28
2022-12-24T07:19:40.876Z,57.47
2022-12-24T07:21:13.299Z,67.00
2022-12-24T07:22:47.949Z,65.22
2022-12-24T07:24:21.632Z,75.70
2022-12-24T07:25:53.812Z,87.60
2022-12-24T07:27:27.125Z,61.05
2022-12-24T07:29:00.333Z,43.30
2022-12-24T07:30:34.396Z,38.17
2022-12-24T07:32:08.102Z,42.38
2022-12-24T07:33:41.487Z,47.40
2022-12-24T07:35:15.484Z,46.00
2022-12-24T07:36:49.051Z,46.40
2022-12-24T07:38:22.210Z,41.25
2022-12-24T07:39:55.295Z,43.40
2022-12-24T07:41:28.456Z,45.28
2022-12-24T07:43:01.044Z,50.90
2022-12-24T07:44:34.483Z,55.88
2022-12-24T07:46:09.816Z,60.15
2022-12-24T07:47:43.535Z,73.82
2022-12-24T07:49:17.276Z,64.88
2022-12-24T07:50:50.888Z,53.85
2022-12-24T07:52:24.174Z,45.60
2022-12-24T07:53:57.389Z,49.33
2022-12-24T07:55:31.995Z,50.60
2022-12-24T07:57:05.587Z,45.28
2022-12-24T07:58:37.819Z,41.38
2022-12-24T08:00:12.106Z,154.90
2022-12-24T08:01:47.803Z,42.78
2022-12-24T08:03:22.958Z,38.70
2022-12-24T08:04:56.898Z,30.63
2022-12-24T08:06:30.281Z,32.00
2022-12-24T08:08:03.218Z,38.13
2022-12-24T08:09:37.811Z,44.33
2022-12-24T08:11:10.993Z,53.63
2022-12-24T08:12:45.606Z,53.28
2022-12-24T08:14:19.447Z,54.42
2022-12-24T08:15:51.789Z,66.32
2022-12-24T08:17:31.988Z,64.47
2022-12-24T08:19:06.011Z,76.15
2022-12-24T08:20:43.006Z,68.80
2022-12-24T08:22:16.951Z,81.55
2022-12-24T08:23:50.360Z,71.85
2022-12-24T08:25:22.516Z,77.68
2022-12-24T08:26:55.898Z,67.68
2022-12-24T08:28:29.341Z,64.50
2022-12-24T08:30:03.165Z,57.53
2022-12-24T08:31:38.250Z,62.50
2022-12-24T08:33:13.063Z,68.90
2022-12-24T08:34:46.172Z,58.70
2022-12-24T08:36:20.367Z,52.97
2022-12-24T08:37:53.670Z,44.67
2022-12-24T08:39:26.740Z,45.65
2022-12-24T08:41:00.911Z,44.72
2022-12-24T08:42:34.071Z,43.45
2022-12-24T08:44:07.702Z,43.58
2022-12-24T08:45:41.372Z,42.63
2022-12-24T08:47:14.614Z,41.25
2022-12-24T08:48:49.439Z,36.22
2022-12-24T08:50:23.410Z,31.95
2022-12-24T08:51:56.555Z,30.38
2022-12-24T08:53:29.316Z,35.85
2022-12-24T08:55:04.702Z,37.25
2022-12-24T08:56:38.112Z,36.58
2022-12-24T08:58:12.572Z,36.75
2022-12-24T08:59:45.754Z,31.83
2022-12-24T09:01:21.503Z,32.10
2022-12-24T09:02:54.890Z,36.55
2022-12-24T09:04:30.697Z,35.13
2022-12-24T09:06:05.321Z,34.85
2022-12-24T09:07:38.733Z,38.20
2022-12-24T09:09:11.893Z,41.95
2022-12-24T09:10:44.999Z,40.65
2022-12-24T09:12:18.161Z,39.47
2022-12-24T09:13:55.088Z,43.13
2022-12-24T09:15:28.544Z,45.15
2022-12-24T09:17:06.546Z,48.90
2022-12-24T09:18:40.426Z,56.17
2022-12-24T09:20:15.409Z,55.85
2022-12-24T09:21:48.718Z,76.55
2022-12-24T09:23:21.862Z,57.22
2022-12-24T09:24:56.167Z,55.53
2022-12-24T09:26:31.555Z,69.32
2022-12-24T09:28:04.846Z,57.25
2022-12-24T09:29:40.682Z,57.30
2022-12-24T09:31:14.509Z,57.78
2022-12-24T09:32:47.705Z,59.78
2022-12-24T09:34:25.173Z,58.10
2022-12-24T09:36:05.448Z,54.03
2022-12-24T09:37:41.968Z,54.22
2022-12-24T09:39:15.911Z,58.20
2022-12-24T09:40:49.405Z,58.08
2022-12-24T09:42:31.922Z,58.63
2022-12-24T09:44:19.840Z,51.53
2022-12-24T09:46:08.387Z,52.40
2022-12-24T09:47:47.942Z,46.17
2022-12-24T09:49:25.607Z,44.45
2022-12-24T09:51:05.520Z,44.38
2022-12-24T09:52:45.457Z,46.70
2022-12-24T09:54:23.710Z,51.33
2022-12-24T09:55:59.630Z,51.75
2022-12-24T09:57:38.322Z,57.30
2022-12-24T09:59:15.713Z,54.88
2022-12-24T10:00:50.357Z,56.45
2022-12-24T10:02:23.963Z,61.40
2022-12-24T10:04:00.408Z,59.25
2022-12-24T10:05:41.620Z,57.80
2022-12-24T10:07:29.590Z,55.63
2022-12-24T10:09:15.123Z,49.53
2022-12-24T10:10:53.223Z,49.88
2022-12-24T10:12:34.197Z,46.05
2022-12-24T10:14:20.508Z,77.22
2022-12-24T10:16:01.894Z,63.72
2022-12-24T10:17:53.643Z,55.47
2022-12-24T10:19:49.417Z,44.00
2022-12-24T10:21:33.667Z,46.38
2022-12-24T10:23:15.612Z,51.22
2022-12-24T10:24:59.579Z,40.92
2022-12-24T10:26:41.349Z,45.45
2022-12-24T10:28:19.323Z,43.75
2022-12-24T10:29:58.851Z,39.60
2022-12-24T10:31:40.888Z,39.05
2022-12-24T10:33:20.402Z,44.08
2022-12-24T10:35:00.455Z,39.78
2022-12-24T10:36:33.735Z,37.75
2022-12-24T10:38:06.952Z,31.95
2022-12-24T10:39:40.798Z,40.15
2022-12-24T10:41:17.319Z,44.88
2022-12-24T10:42:51.597Z,39.40
2022-12-24T10:44:29.288Z,36.50
2022-12-24T10:46:07.917Z,35.15
2022-12-24T10:47:43.537Z,33.88
2022-12-24T10:49:20.038Z,34.95
2022-12-24T10:50:58.583Z,33.58
2022-12-24T10:52:36.838Z,32.78
2022-12-24T10:54:19.455Z,45.17
2022-12-24T10:56:03.415Z,44.25
2022-12-24T10:57:39.676Z,39.42
2022-12-24T10:59:26.789Z,34.17
2022-12-24T11:00:59.995Z,34.08
2022-12-24T11:02:35.232Z,35.13
2022-12-24T11:04:16.516Z,37.50
2022-12-24T11:06:06.038Z,47.97
2022-12-24T11:07:39.948Z,56.13
2022-12-24T11:09:23.480Z,60.60
2022-12-24T11:10:58.614Z,59.65
2022-12-24T11:12:35.291Z,52.70
2022-12-24T11:14:18.190Z,48.75
2022-12-24T11:16:01.716Z,59.30
2022-12-24T11:17:35.614Z,42.45
2022-12-24T11:19:21.241Z,45.50
2022-12-24T11:20:59.554Z,49.97
2022-12-24T11:22:33.944Z,48.90
2022-12-24T11:24:15.719Z,43.08
2022-12-24T11:25:51.854Z,47.65
2022-12-24T11:27:32.142Z,46.28
2022-12-24T11:29:13.632Z,51.65
2022-12-24T11:31:01.569Z,64.45
2022-12-24T11:32:34.987Z,54.95
2022-12-24T11:34:23.599Z,59.22
2022-12-24T11:36:04.622Z,42.75
2022-12-24T11:37:38.375Z,41.97
2022-12-24T11:39:21.469Z,45.75
2022-12-24T11:41:13.400Z,44.17
2022-12-24T11:42:46.632Z,47.72
2022-12-24T11:44:27.907Z,49.00
2022-12-24T11:46:14.626Z,46.95
2022-12-24T11:47:47.990Z,49.33
2022-12-24T11:49:27.354Z,48.35
2022-12-24T11:51:04.974Z,52.15
2022-12-24T11:52:39.437Z,58.83
2022-12-24T11:54:21.744Z,60.85
2022-12-24T11:55:58.021Z,63.65
2022-12-24T11:57:45.553Z,65.22
2022-12-24T11:59:25.234Z,64.18
2022-12-24T12:01:10.163Z,63.80
2022-12-24T12:02:52.888Z,64.88
2022-12-24T12:04:30.801Z,67.45
2022-12-24T12:06:09.101Z,70.15
2022-12-24T12:07:44.692Z,67.55
2022-12-24T12:09:22.841Z,72.65
2022-12-24T12:10:57.958Z,69.72
2022-12-24T12:12:33.928Z,65.60
2022-12-24T12:14:11.435Z,60.17
2022-12-24T12:15:50.262Z,65.35
2022-12-24T12:17:32.544Z,91.30
2022-12-24T12:19:14.937Z,84.85
2022-12-24T12:20:52.021Z,112.57
2022-12-24T12:22:31.606Z,74.35
2022-12-24T12:24:08.346Z,71.75
2022-12-24T12:25:48.495Z,72.35
2022-12-24T12:27:29.282Z,73.03
2022-12-24T12:29:06.450Z,70.10
2022-12-24T12:30:42.329Z,69.88
2022-12-24T12:32:28.370Z,71.38
2022-12-24T12:34:07.518Z,82.55
2022-12-24T12:35:43.293Z,76.45
2022-12-24T12:37:21.832Z,97.28
2022-12-24T12:38:55.226Z,95.97
2022-12-24T12:40:41.520Z,92.85
2022-12-24T12:42:24.782Z,82.57
2022-12-24T12:44:26.281Z,79.13
2022-12-24T12:46:09.941Z,77.30
2022-12-24T12:48:01.373Z,83.00
2022-12-24T12:49:44.352Z,65.03
2022-12-24T12:51:23.941Z,66.40
2022-12-24T12:53:29.597Z,69.25
2022-12-24T12:55:23.886Z,80.50
2022-12-24T12:57:04.452Z,83.50
2022-12-24T12:58:41.132Z,106.30
2022-12-24T13:00:18.976Z,106.55
2022-12-24T13:02:02.318Z,112.72
2022-12-24T13:04:11.570Z,108.40
2022-12-24T13:06:14.752Z,104.53
2022-12-24T13:08:03.563Z,95.20
2022-12-24T13:10:04.666Z,102.43
2022-12-24T13:12:01.614Z,97.13
2022-12-24T13:13:54.118Z,169.02
2022-12-24T13:15:51.822Z,99.47
2022-12-24T13:17:46.924Z,94.60
2022-12-24T13:19:38.216Z,100.22
2022-12-24T13:21:18.910Z,93.40
2022-12-24T13:22:59.165Z,101.43
2022-12-24T13:24:35.500Z,94.68
2022-12-24T13:26:14.116Z,97.40
2022-12-24T13:27:47.657Z,102.68
2022-12-24T13:29:43.393Z,102.63
2022-12-24T13:31:29.882Z,84.45
2022-12-24T13:33:04.127Z,76.95
2022-12-24T13:34:39.304Z,77.72
2022-12-24T13:36:16.714Z,76.95
2022-12-24T13:37:52.763Z,67.68
2022-12-24T13:39:26.473Z,59.88
2022-12-24T13:41:50.670Z,54.33
2022-12-24T13:43:24.426Z,56.53
2022-12-24T13:45:30.750Z,56.30
2022-12-24T13:47:25.338Z,58.72
2022-12-24T13:49:13.396Z,59.42
2022-12-24T13:50:50.623Z,58.47
2022-12-24T13:52:37.654Z,63.15
2022-12-24T13:54:19.744Z,64.65
2022-12-24T13:55:55.613Z,63.70
2022-12-24T13:57:34.015Z,95.38
2022-12-24T13:59:33.133Z,84.50
2022-12-24T14:01:13.412Z,89.65
2022-12-24T14:02:50.668Z,99.35
2022-12-24T14:04:28.293Z,100.53
2022-12-24T14:06:05.144Z,119.75
2022-12-24T14:07:38.721Z,115.35
2022-12-24T14:09:18.075Z,105.57
2022-12-24T14:11:04.976Z,121.35
2022-12-24T14:12:50.050Z,109.68
2022-12-24T14:14:31.996Z,128.02
2022-12-24T14:16:06.276Z,123.30
2022-12-24T14:17:40.769Z,154.68
2022-12-24T14:19:17.832Z,154.77
2022-12-24T14:20:54.710Z,165.73
2022-12-24T14:22:32.039Z,150.20
2022-12-24T14:24:13.420Z,154.60
2022-12-24T14:25:48.239Z,150.05
2022-12-24T14:27:26.126Z,151.15
2022-12-24T14:29:05.057Z,152.77
2022-12-24T14:30:39.267Z,155.70
2022-12-24T14:32:16.272Z,152.45
2022-12-24T14:33:50.048Z,169.65
2022-12-24T14:35:27.028Z,184.73
2022-12-24T14:37:05.259Z,139.40
2022-12-24T14:38:42.043Z,135.18
2022-12-24T14:40:19.793Z,134.68
2022-12-24T14:42:03.497Z,87.45
2022-12-24T14:43:54.384Z,87.85
2022-12-24T14:45:35.122Z,89.88
2022-12-24T14:47:22.110Z,89.10
2022-12-24T14:48:58.870Z,96.03
2022-12-24T14:50:49.322Z,98.38
2022-12-24T14:53:04.031Z,92.75
2022-12-24T14:54:36.287Z,85.93
2022-12-24T14:56:17.271Z,90.55
2022-12-24T14:57:52.246Z,89.22
2022-12-24T14:59:26.966Z,91.95
2022-12-24T15:01:02.025Z,91.15
2022-12-24T15:02:44.356Z,98.45
2022-12-24T15:04:19.457Z,95.82
2022-12-24T15:05:55.884Z,93.07
2022-12-24T15:07:28.369Z,98.95
2022-12-24T15:09:02.959Z,103.65
2022-12-24T15:10:38.928Z,105.15
2022-12-24T15:12:14.257Z,101.57
2022-12-24T15:13:53.978Z,124.32
2022-12-24T15:15:27.177Z,118.22
2022-12-24T15:17:03.575Z,131.93
2022-12-24T15:18:39.860Z,149.95
2022-12-24T15:20:17.439Z,155.55
2022-12-24T15:21:51.114Z,150.50
2022-12-24T15:23:29.136Z,154.45
2022-12-24T15:25:02.379Z,122.85
2022-12-24T15:26:37.226Z,95.82
2022-12-24T15:28:19.612Z,96.53
2022-12-24T15:29:58.352Z,90.00
2022-12-24T15:31:32.979Z,85.65
2022-12-24T15:33:07.481Z,85.97
2022-12-24T15:34:42.657Z,80.78
2022-12-24T15:36:16.215Z,74.75
2022-12-24T15:37:49.508Z,77.95
2022-12-24T15:39:22.788Z,84.72
2022-12-24T15:40:56.410Z,78.88
2022-12-24T15:42:32.397Z,92.60
2022-12-24T15:44:09.473Z,82.05
2022-12-24T15:45:48.568Z,77.68
2022-12-24T15:47:28.055Z,80.72
2022-12-24T15:49:03.868Z,77.82
2022-12-24T15:50:39.263Z,67.75
2022-12-24T15:52:16.086Z,62.63
2022-12-24T15:53:50.102Z,104.15
2022-12-24T15:55:28.799Z,159.63
2022-12-24T15:57:14.502Z,128.98
2022-12-24T15:58:47.860Z,129.57
2022-12-24T16:00:24.174Z,116.15
2022-12-24T16:02:20.077Z,132.48
2022-12-24T16:04:00.551Z,114.80
2022-12-24T16:05:37.051Z,112.85
2022-12-24T16:07:25.821Z,109.15
2022-12-24T16:08:59.027Z,113.00
2022-12-24T16:10:32.129Z,112.78
2022-12-24T16:12:06.162Z,119.53
2022-12-24T16:13:43.329Z,117.30
2022-12-24T16:15:16.950Z,114.65
2022-12-24T16:16:53.008Z,120.03
2022-12-24T16:18:33.537Z,108.68
2022-12-24T16:20:17.540Z,109.38
2022-12-24T16:21:54.600Z,104.90
2022-12-24T16:23:34.014Z,103.93
2022-12-24T16:25:24.215Z,102.90
2022-12-24T16:26:59.164Z,104.38
2022-12-24T16:28:31.586Z,102.18
2022-12-24T16:30:05.705Z,96.53
2022-12-24T16:31:44.577Z,85.43
2022-12-24T16:33:22.277Z,75.97
2022-12-24T16:34:57.354Z,86.88
2022-12-24T16:36:32.041Z,93.68
2022-12-24T16:38:05.925Z,94.35
2022-12-24T16:39:39.044Z,103.43
2022-12-24T16:41:12.967Z,108.43
2022-12-24T16:43:03.802Z,102.63
2022-12-24T16:44:36.414Z,102.75
2022-12-24T16:46:10.125Z,114.68
2022-12-24T16:47:43.949Z,110.80
2022-12-24T16:49:18.697Z,114.00
2022-12-24T16:50:55.025Z,112.13
2022-12-24T16:52:30.122Z,113.63
2022-12-24T16:54:03.807Z,113.57
2022-12-24T16:55:37.222Z,118.18
2022-12-24T16:57:11.831Z,113.68
2022-12-24T16:58:45.831Z,112.43
2022-12-24T17:00:21.908Z,115.80
2022-12-24T17:01:56.251Z,117.43
2022-12-24T17:03:29.801Z,120.82
2022-12-24T17:05:02.958Z,124.75
2022-12-24T17:06:37.961Z,150.63
2022-12-24T17:08:12.040Z,172.43
2022-12-24T17:09:45.576Z,188.63
2022-12-24T17:11:23.378Z,124.55
2022-12-24T17:12:56.737Z,105.97
2022-12-24T17:14:30.173Z,102.10
2022-12-24T17:16:03.704Z,83.68
2022-12-24T17:17:37.926Z,97.35
2022-12-24T17:19:11.679Z,114.45
2022-12-24T17:20:57.615Z,113.75
2022-12-24T17:22:32.446Z,105.85
2022-12-24T17:24:06.913Z,97.65
2022-12-24T17:25:40.356Z,96.45
2022-12-24T17:27:12.731Z,97.28
2022-12-24T17:28:45.879Z,105.45
2022-12-24T17:30:19.402Z,98.97
2022-12-24T17:31:53.151Z,104.20
2022-12-24T17:33:26.579Z,110.25
2022-12-24T17:35:00.212Z,120.97
2022-12-24T17:36:34.595Z,119.43
2022-12-24T17:38:09.535Z,92.85
2022-12-24T17:39:42.707Z,94.00
2022-12-24T17:41:18.888Z,74.85
2022-12-24T17:42:53.097Z,84.93
2022-12-24T17:44:26.401Z,81.05
2022-12-24T17:46:00.104Z,85.45
2022-12-24T17:47:33.338Z,76.63
2022-12-24T17:49:07.258Z,71.65
2022-12-24T17:50:41.295Z,72.53
2022-12-24T17:52:15.292Z,66.65
2022-12-24T17:53:51.093Z,65.65
2022-12-24T17:55:24.476Z,61.28
2022-12-24T17:57:01.911Z,64.70
2022-12-24T17:58:36.039Z,70.22
2022-12-24T18:00:10.601Z,64.03
2022-12-24T18:01:44.305Z,58.55
2022-12-24T18:03:17.598Z,60.83
2022-12-24T18:04:51.524Z,66.30
2022-12-24T18:06:25.075Z,51.70
2022-12-24T18:07:58.737Z,54.65
2022-12-24T18:09:33.527Z,51.15
2022-12-24T18:11:12.987Z,49.83
2022-12-24T18:12:46.633Z,54.90
2022-12-24T18:14:20.496Z,56.22
2022-12-24T18:15:53.873Z,59.72
2022-12-24T18:17:27.036Z,77.10
2022-12-24T18:19:00.023Z,76.68
2022-12-24T18:20:39.611Z,84.00
2022-12-24T18:22:16.487Z,63.40
2022-12-24T18:23:51.289Z,70.45
2022-12-24T18:25:26.888Z,70.60
2022-12-24T18:27:00.153Z,75.93
2022-12-24T18:28:34.204Z,106.15
2022-12-24T18:30:09.205Z,91.20
2022-12-24T18:31:42.790Z,93.38
2022-12-24T18:33:15.950Z,86.60
2022-12-24T18:34:52.384Z,70.43
2022-12-24T18:36:26.134Z,69.55
2022-12-24T18:37:59.333Z,63.78
2022-12-24T18:39:32.494Z,60.45
2022-12-24T18:41:08.605Z,55.53
2022-12-24T18:42:43.028Z,64.10
2022-12-24T18:44:22.546Z,56.22
2022-12-24T18:45:57.927Z,38.95
2022-12-24T18:47:31.079Z,37.17
2022-12-24T18:49:04.335Z,41.33
2022-12-24T18:50:38.457Z,46.75
2022-12-24T18:52:11.844Z,53.08
2022-12-24T18:53:45.538Z,55.25
2022-12-24T18:55:18.859Z,47.78
2022-12-24T18:56:53.391Z,46.42
2022-12-24T18:58:25.513Z,54.50
2022-12-24T18:59:59.291Z,57.13
2022-12-24T19:01:36.671Z,55.03
2022-12-24T19:03:10.171Z,61.00
2022-12-24T19:04:43.418Z,45.70
2022-12-24T19:06:17.543Z,58.85
2022-12-24T19:07:50.657Z,95.97
2022-12-24T19:09:24.398Z,101.45
2022-12-24T19:10:57.686Z,99.70
2022-12-24T19:12:32.187Z,91.07
2022-12-24T19:14:07.478Z,99.03
2022-12-24T19:15:42.228Z,103.50
2022-12-24T19:17:15.432Z,100.80
2022-12-24T19:18:48.561Z,106.47
2022-12-24T19:20:21.807Z,107.88
2022-12-24T19:21:54.971Z,105.97
2022-12-24T19:23:28.087Z,104.93
2022-12-24T19:25:01.297Z,112.20
2022-12-24T19:26:34.382Z,106.70
2022-12-24T19:28:09.802Z,103.85
2022-12-24T19:29:42.972Z,77.85
2022-12-24T19:31:18.348Z,81.32
2022-12-24T19:32:51.601Z,88.20
2022-12-24T19:34:24.733Z,84.15
2022-12-24T19:35:58.055Z,73.97
2022-12-24T19:37:31.567Z,51.42
2022-12-24T19:39:04.897Z,48.72
2022-12-24T19:40:37.330Z,38.05
2022-12-24T19:42:10.438Z,44.30
2022-12-24T19:43:46.814Z,52.88
2022-12-24T19:45:20.145Z,63.13
2022-12-24T19:46:53.424Z,90.68
2022-12-24T19:48:26.632Z,75.57
2022-12-24T19:50:00.296Z,67.55
2022-12-24T19:51:34.745Z,85.68
2022-12-24T19:53:07.910Z,117.53
2022-12-24T19:54:42.692Z,132.73
2022-12-24T19:56:16.577Z,132.68
2022-12-24T19:57:49.701Z,118.05
2022-12-24T19:59:24.236Z,119.05
2022-12-24T20:00:57.518Z,111.85
2022-12-24T20:02:30.906Z,117.05
2022-12-24T20:04:05.032Z,155.27
2022-12-24T20:05:41.484Z,153.32
2022-12-24T20:07:14.645Z,149.35
2022-12-24T20:08:48.323Z,148.73
2022-12-24T20:10:21.512Z,104.00
2022-12-24T20:11:54.736Z,110.80
2022-12-24T20:13:28.907Z,76.53
2022-12-24T20:15:03.559Z,86.07
2022-12-24T20:16:37.879Z,71.07
2022-12-24T20:18:12.926Z,82.95
2022-12-24T20:19:47.750Z,87.22
2022-12-24T20:21:20.418Z,94.43
2022-12-24T20:22:53.812Z,83.32
2022-12-24T20:24:28.257Z,73.35
2022-12-24T20:26:11.534Z,65.80
2022-12-24T20:27:44.881Z,59.28
2022-12-24T20:29:18.052Z,57.47
2022-12-24T20:30:52.672Z,75.00
2022-12-24T20:32:26.643Z,80.07
2022-12-24T20:34:00.905Z,79.65
2022-12-24T20:35:35.612Z,91.13
2022-12-24T20:37:08.869Z,84.47
2022-12-24T20:38:41.100Z,68.63